Time;durP1;ratioP1;P1;durP2;ratioP2;P2;SDS_P1;SDS_P2;PMS_P1;PMS_P2;Temp;Humidity;BMP_temperature;BMP_pressure;BME280_temperature;BME280_humidity;BME280_pressure;Samples;Min_cycle;Max_cycle;Signal;HPM_P1;HPM_P2
2023/07/29 00:00:42;;;;;;;0.80;0.80;;;16.00;99.90;;;;;;5053532;28;20605;-69
2023/07/29 00:03:08;;;;;;;0.70;0.70;;;16.10;99.90;;;;;;5053763;28;20404;-71
2023/07/29 00:05:33;;;;;;;1.33;1.07;;;16.10;99.90;;;;;;5053651;28;20449;-68
2023/07/29 00:07:59;;;;;;;0.90;0.90;;;16.10;99.90;;;;;;5053680;28;20408;-69
2023/07/29 00:10:25;;;;;;;1.10;1.10;;;16.10;99.90;;;;;;5053582;28;20265;-70
2023/07/29 00:12:51;;;;;;;1.23;1.10;;;16.10;99.90;;;;;;5053532;28;20170;-70
2023/07/29 00:15:17;;;;;;;0.97;0.97;;;16.10;99.90;;;;;;5053551;28;20463;-71
2023/07/29 00:17:42;;;;;;;1.37;1.10;;;16.20;99.90;;;;;;5053395;28;20662;-69
2023/07/29 00:20:08;;;;;;;1.57;1.47;;;16.30;99.90;;;;;;5053377;28;20185;-71
2023/07/29 00:22:34;;;;;;;2.13;1.93;;;16.20;99.90;;;;;;5053353;28;20572;-70
2023/07/29 00:24:59;;;;;;;0.60;0.60;;;16.30;99.90;;;;;;5053492;28;20186;-68
2023/07/29 00:27:26;;;;;;;1.60;1.30;;;16.30;99.90;;;;;;5053168;28;20162;-69
2023/07/29 00:29:52;;;;;;;0.80;0.80;;;16.30;99.90;;;;;;5053432;28;20192;-71
2023/07/29 00:32:17;;;;;;;2.33;2.10;;;16.30;99.90;;;;;;5053056;28;20397;-71
2023/07/29 00:34:43;;;;;;;1.43;1.43;;;16.30;99.90;;;;;;5053519;28;20408;-69
2023/07/29 00:37:10;;;;;;;0.50;0.50;;;16.30;99.90;;;;;;5052675;28;20416;-68
2023/07/29 00:39:37;;;;;;;0.73;0.70;;;16.30;99.90;;;;;;5053243;28;20435;-68
2023/07/29 00:42:03;;;;;;;1.10;1.10;;;17.30;99.90;;;;;;5052831;28;20405;-71
2023/07/29 00:44:28;;;;;;;0.53;0.53;;;16.20;99.90;;;;;;5053373;28;20440;-68
2023/07/29 00:46:55;;;;;;;0.90;0.90;;;16.10;99.90;;;;;;5053149;28;20470;-68
2023/07/29 00:49:21;;;;;;;0.70;0.70;;;16.00;99.90;;;;;;5052916;28;20206;-69
2023/07/29 00:51:47;;;;;;;1.10;1.00;;;16.00;99.90;;;;;;5052921;28;20835;-68
2023/07/29 00:54:13;;;;;;;1.07;0.77;;;16.20;99.90;;;;;;5053120;28;20448;-70
2023/07/29 00:56:40;;;;;;;0.60;0.60;;;16.20;99.90;;;;;;5053192;28;20494;-69
2023/07/29 00:59:05;;;;;;;0.97;0.50;;;16.20;99.90;;;;;;5053146;28;20428;-68
2023/07/29 01:01:32;;;;;;;0.93;0.80;;;16.10;99.90;;;;;;5052703;28;20503;-71
2023/07/29 01:03:58;;;;;;;0.60;0.60;;;16.10;99.90;;;;;;5057047;28;20681;-68
2023/07/29 01:06:40;;;;;;;1.20;1.20;;;16.00;99.90;;;;;;5057053;28;20453;-71
2023/07/29 01:09:12;;;;;;;0.73;0.73;;;16.00;99.90;;;;;;5056917;28;21026;-68
2023/07/29 01:11:56;;;;;;;0.60;0.60;;;16.00;99.90;;;;;;5056917;28;20441;-71
2023/07/29 01:14:41;;;;;;;0.40;0.40;;;16.10;99.90;;;;;;5057244;28;20764;-70
2023/07/29 01:17:13;;;;;;;0.50;0.50;;;16.00;99.90;;;;;;5056903;28;20760;-71
2023/07/29 01:20:03;;;;;;;0.40;0.40;;;16.10;99.90;;;;;;5056970;28;20635;-70
2023/07/29 01:22:30;;;;;;;0.50;0.50;;;16.20;99.90;;;;;;5056651;28;20401;-71
2023/07/29 01:24:59;;;;;;;1.13;0.43;;;16.20;99.90;;;;;;5056438;28;20479;-68
2023/07/29 01:27:25;;;;;;;0.70;0.50;;;16.10;99.90;;;;;;5055838;28;20404;-69
2023/07/29 01:29:50;;;;;;;0.50;0.50;;;16.20;99.90;;;;;;5056453;28;20439;-71
2023/07/29 01:32:39;;;;;;;0.57;0.57;;;16.20;99.90;;;;;;5055823;28;20407;-69
2023/07/29 01:35:11;;;;;;;0.60;0.60;;;16.20;99.90;;;;;;5055826;28;20198;-70
2023/07/29 01:37:40;;;;;;;0.70;0.70;;;16.30;99.90;;;;;;5056353;28;20405;-71
2023/07/29 01:40:08;;;;;;;1.13;1.13;;;16.30;99.90;;;;;;5056275;28;20452;-71
2023/07/29 01:42:34;;;;;;;0.83;0.83;;;16.30;99.90;;;;;;5055974;28;20412;-71
2023/07/29 01:45:00;;;;;;;1.27;0.50;;;16.30;99.90;;;;;;5056248;28;20448;-69
2023/07/29 01:47:25;;;;;;;1.37;1.27;;;16.30;99.90;;;;;;5056075;28;20415;-69
2023/07/29 01:49:51;;;;;;;0.70;0.70;;;16.30;99.90;;;;;;5056185;28;20444;-71
2023/07/29 01:52:17;;;;;;;0.40;0.40;;;16.50;99.90;;;;;;5056008;28;20162;-70
2023/07/29 01:54:42;;;;;;;0.70;0.70;;;16.50;99.90;;;;;;5056306;28;20178;-71
2023/07/29 01:57:08;;;;;;;2.87;1.20;;;16.50;99.90;;;;;;5055766;28;20197;-69
2023/07/29 01:59:34;;;;;;;0.40;0.40;;;16.60;99.90;;;;;;5055933;28;20565;-70
2023/07/29 02:01:59;;;;;;;0.50;0.50;;;16.60;99.90;;;;;;5055932;28;20178;-69
2023/07/29 02:04:25;;;;;;;0.60;0.60;;;15.80;99.90;;;;;;5056051;28;20631;-68
2023/07/29 02:06:51;;;;;;;0.73;0.73;;;16.70;99.90;;;;;;5055960;28;20201;-68
2023/07/29 02:09:16;;;;;;;1.37;0.87;;;16.70;99.90;;;;;;5055885;28;20190;-71
2023/07/29 02:11:42;;;;;;;0.90;0.60;;;16.70;99.90;;;;;;5055762;28;20170;-70
2023/07/29 02:14:07;;;;;;;0.50;0.50;;;16.70;99.90;;;;;;5055238;28;20535;-71
2023/07/29 02:16:34;;;;;;;1.00;1.00;;;16.80;99.90;;;;;;5055732;28;20171;-69
2023/07/29 02:19:00;;;;;;;0.30;0.30;;;16.90;99.90;;;;;;5055724;28;20182;-71
2023/07/29 02:21:25;;;;;;;0.70;0.70;;;16.90;99.90;;;;;;5055424;28;20469;-69
2023/07/29 02:23:51;;;;;;;0.87;0.87;;;16.80;99.90;;;;;;5055740;28;20261;-69
2023/07/29 02:26:17;;;;;;;0.90;0.90;;;16.90;99.90;;;;;;5055626;28;20277;-68
2023/07/29 02:28:42;;;;;;;0.50;0.50;;;16.90;99.90;;;;;;5055483;28;20182;-70
2023/07/29 02:31:17;;;;;;;1.57;0.77;;;16.90;99.90;;;;;;5055310;28;20745;-69
2023/07/29 02:33:44;;;;;;;16.20;1.63;;;16.90;99.90;;;;;;5055464;28;20170;-70
2023/07/29 02:36:11;;;;;;;0.70;0.60;;;16.80;99.90;;;;;;5055541;28;20401;-70
2023/07/29 02:38:36;;;;;;;0.40;0.40;;;16.60;99.90;;;;;;5055219;28;20474;-68
2023/07/29 02:41:02;;;;;;;0.47;0.47;;;16.80;99.90;;;;;;5055156;28;20470;-68
2023/07/29 02:43:27;;;;;;;2.00;1.40;;;16.80;99.90;;;;;;5055247;28;20567;-69
2023/07/29 02:45:53;;;;;;;0.40;0.40;;;16.90;99.90;;;;;;5055290;28;20306;-69
2023/07/29 02:48:19;;;;;;;0.93;0.50;;;16.70;99.90;;;;;;5055179;28;20242;-71
2023/07/29 02:50:44;;;;;;;1.03;1.03;;;16.90;99.90;;;;;;5054916;28;20263;-69
2023/07/29 02:53:10;;;;;;;0.50;0.50;;;17.00;99.90;;;;;;5054993;28;20670;-69
2023/07/29 02:55:35;;;;;;;0.30;0.30;;;17.10;99.90;;;;;;5055094;28;20166;-70
2023/07/29 02:58:01;;;;;;;1.20;1.10;;;17.00;99.90;;;;;;5055048;28;20180;-71
2023/07/29 03:00:27;;;;;;;0.40;0.40;;;16.90;99.90;;;;;;5054977;28;20678;-68
2023/07/29 03:02:53;;;;;;;0.40;0.40;;;16.90;99.90;;;;;;5054870;28;20223;-68
2023/07/29 03:05:18;;;;;;;0.40;0.40;;;16.90;99.90;;;;;;5054851;28;20804;-69
2023/07/29 03:07:45;;;;;;;1.37;1.10;;;16.80;99.90;;;;;;5054772;28;20170;-69
2023/07/29 03:10:11;;;;;;;0.40;0.40;;;16.90;99.90;;;;;;5055135;28;20186;-69
2023/07/29 03:12:36;;;;;;;1.13;1.13;;;16.90;99.90;;;;;;5054535;28;20935;-68
2023/07/29 03:15:02;;;;;;;0.40;0.40;;;17.00;99.90;;;;;;5054755;28;20397;-69
2023/07/29 03:17:28;;;;;;;0.83;0.60;;;17.00;99.90;;;;;;5054742;28;20258;-71
2023/07/29 03:19:54;;;;;;;26.53;1.67;;;17.00;99.90;;;;;;5054566;28;20812;-70
2023/07/29 03:22:20;;;;;;;0.90;0.50;;;17.00;99.90;;;;;;5054268;28;20408;-68
2023/07/29 03:24:45;;;;;;;1.70;0.90;;;17.00;99.90;;;;;;5053496;28;20205;-70
2023/07/29 03:27:11;;;;;;;0.60;0.50;;;17.10;99.90;;;;;;5054500;28;20162;-70
2023/07/29 03:29:36;;;;;;;1.00;1.00;;;17.00;99.90;;;;;;5051525;28;20563;-70
2023/07/29 03:32:02;;;;;;;0.40;0.40;;;17.10;99.90;;;;;;5054169;28;20177;-69
2023/07/29 03:34:28;;;;;;;2.00;1.57;;;16.90;99.90;;;;;;5054454;28;20575;-69
2023/07/29 03:36:54;;;;;;;0.80;0.80;;;16.90;99.90;;;;;;5052631;28;20484;-71
2023/07/29 03:39:19;;;;;;;0.50;0.50;;;16.90;99.90;;;;;;5054123;28;20268;-71
2023/07/29 03:41:45;;;;;;;1.43;0.93;;;16.90;99.90;;;;;;5053927;28;20175;-68
2023/07/29 03:44:11;;;;;;;0.50;0.50;;;16.80;99.90;;;;;;5054126;28;20196;-71
2023/07/29 03:46:36;;;;;;;1.47;1.00;;;16.80;99.90;;;;;;5054094;28;20231;-69
2023/07/29 03:49:03;;;;;;;0.97;0.60;;;;;;;;;;5053814;28;20194;-70
2023/07/29 03:51:28;;;;;;;0.50;0.50;;;16.60;99.90;;;;;;5053954;28;20166;-69
2023/07/29 03:53:54;;;;;;;0.70;0.70;;;16.60;99.90;;;;;;5053981;28;20458;-71
2023/07/29 03:56:20;;;;;;;0.73;0.73;;;16.60;99.90;;;;;;5053929;28;20706;-69
2023/07/29 03:58:48;;;;;;;0.70;0.50;;;16.60;99.90;;;;;;5053728;28;20190;-69
2023/07/29 04:01:14;;;;;;;0.67;0.67;;;16.70;99.90;;;;;;5053715;28;20264;-68
2023/07/29 04:03:39;;;;;;;2.43;0.50;;;16.80;99.90;;;;;;5053662;28;20408;-70
2023/07/29 04:06:05;;;;;;;1.33;1.07;;;16.90;99.90;;;;;;5053415;28;20455;-71
2023/07/29 04:08:31;;;;;;;1.03;1.00;;;17.10;99.90;;;;;;5053780;28;20276;-67
2023/07/29 04:10:57;;;;;;;1.97;0.73;;;16.90;99.90;;;;;;5053648;28;20173;-69
2023/07/29 04:13:23;;;;;;;0.40;0.40;;;16.90;99.90;;;;;;5053626;28;20413;-71
2023/07/29 04:15:48;;;;;;;0.40;0.40;;;16.90;99.90;;;;;;5053496;28;20174;-71
2023/07/29 04:18:14;;;;;;;1.57;0.77;;;17.00;99.90;;;;;;5053712;28;20522;-71
2023/07/29 04:20:40;;;;;;;0.60;0.60;;;17.10;99.90;;;;;;5053598;28;20204;-69
2023/07/29 04:23:05;;;;;;;0.60;0.60;;;17.20;99.90;;;;;;5053534;28;20170;-70
2023/07/29 04:25:31;;;;;;;0.50;0.50;;;17.30;99.90;;;;;;5053472;28;20280;-68
2023/07/29 04:27:58;;;;;;;3.20;0.87;;;17.30;99.90;;;;;;5053384;28;20166;-70
2023/07/29 04:30:23;;;;;;;1.00;1.00;;;17.30;99.90;;;;;;5053157;28;20193;-70
2023/07/29 04:32:49;;;;;;;0.60;0.60;;;17.20;99.90;;;;;;5053208;28;20397;-70
2023/07/29 04:35:15;;;;;;;1.60;0.63;;;17.20;99.90;;;;;;5053231;28;20645;-70
2023/07/29 04:37:41;;;;;;;1.23;1.23;;;17.20;99.90;;;;;;5053075;28;20401;-68
2023/07/29 04:40:07;;;;;;;0.83;0.83;;;17.20;99.90;;;;;;5053404;28;20192;-70
2023/07/29 04:42:33;;;;;;;0.60;0.50;;;17.30;99.90;;;;;;5053230;28;20171;-72
2023/07/29 04:44:58;;;;;;;0.50;0.50;;;17.40;99.90;;;;;;5053023;28;20950;-69
2023/07/29 04:47:24;;;;;;;1.37;1.27;;;17.40;99.90;;;;;;5052911;28;20166;-68
2023/07/29 04:49:49;;;;;;;0.90;0.87;;;17.40;99.90;;;;;;5052959;28;20272;-69
2023/07/29 04:52:15;;;;;;;1.83;1.70;;;17.50;99.90;;;;;;5052969;28;20209;-69
2023/07/29 04:54:41;;;;;;;0.50;0.50;;;17.50;99.90;;;;;;5053164;28;20237;-71
2023/07/29 04:57:07;;;;;;;0.40;0.40;;;17.50;99.90;;;;;;5053180;28;20595;-71
2023/07/29 04:59:32;;;;;;;0.90;0.90;;;17.60;99.90;;;;;;5052929;28;20518;-69
2023/07/29 05:01:58;;;;;;;0.87;0.87;;;17.60;99.90;;;;;;5052766;28;20175;-70
2023/07/29 05:04:24;;;;;;;1.03;0.93;;;17.60;99.90;;;;;;5053011;28;20676;-70
2023/07/29 05:06:50;;;;;;;0.60;0.60;;;17.70;99.90;;;;;;5053217;28;20250;-70
2023/07/29 05:09:17;;;;;;;0.87;0.87;;;17.70;99.90;;;;;;5053072;28;20424;-69
2023/07/29 05:11:47;;;;;;;0.80;0.80;;;17.60;99.90;;;;;;5052816;28;20403;-69
2023/07/29 05:14:17;;;;;;;8.03;1.10;;;17.70;99.90;;;;;;5052849;28;20412;-70
2023/07/29 05:16:44;;;;;;;0.73;0.73;;;17.70;99.90;;;;;;5052891;28;20400;-72
2023/07/29 05:19:09;;;;;;;0.80;0.80;;;17.80;99.90;;;;;;5052865;28;20790;-70
2023/07/29 05:21:36;;;;;;;0.70;0.70;;;17.80;99.90;;;;;;5052617;28;20406;-71
2023/07/29 05:24:02;;;;;;;0.63;0.63;;;17.70;99.90;;;;;;5052959;28;20163;-71
2023/07/29 05:26:28;;;;;;;0.40;0.40;;;17.80;99.90;;;;;;5052867;28;20450;-70
2023/07/29 05:28:53;;;;;;;0.43;0.43;;;17.80;99.90;;;;;;5052658;28;20696;-69
2023/07/29 05:31:19;;;;;;;0.77;0.77;;;17.80;99.90;;;;;;5052537;28;20162;-71
2023/07/29 05:33:45;;;;;;;1.03;0.60;;;17.80;99.90;;;;;;5053013;28;20764;-72
2023/07/29 05:36:10;;;;;;;0.83;0.40;;;17.90;99.90;;;;;;5052885;28;20412;-69
2023/07/29 05:38:36;;;;;;;0.93;0.93;;;18.10;99.90;;;;;;5052619;28;20176;-68
2023/07/29 05:41:02;;;;;;;1.07;0.70;;;18.20;99.90;;;;;;5052545;28;20224;-70
2023/07/29 05:43:27;;;;;;;0.77;0.77;;;18.40;99.90;;;;;;5052550;28;20266;-69
2023/07/29 05:45:53;;;;;;;0.60;0.60;;;18.60;99.90;;;;;;5052521;28;20572;-70
2023/07/29 05:48:22;;;;;;;0.67;0.67;;;18.90;99.90;;;;;;5053698;28;20201;-71
2023/07/29 05:50:48;;;;;;;0.77;0.77;;;19.20;99.90;;;;;;5056088;28;20591;-69
2023/07/29 05:53:14;;;;;;;1.00;1.00;;;19.60;99.90;;;;;;5056303;28;20400;-68
2023/07/29 05:55:40;;;;;;;1.00;0.83;;;19.70;99.90;;;;;;5056308;28;20405;-70
2023/07/29 05:58:05;;;;;;;0.73;0.67;;;19.80;99.90;;;;;;5056999;28;20407;-71
2023/07/29 06:00:31;;;;;;;2.50;2.00;;;19.80;99.90;;;;;;5056004;28;20202;-69
2023/07/29 06:02:57;;;;;;;0.50;0.50;;;19.80;99.90;;;;;;5056060;28;20199;-71
2023/07/29 06:05:23;;;;;;;0.90;0.90;;;19.80;99.90;;;;;;5056098;28;20546;-71
2023/07/29 06:07:49;;;;;;;0.83;0.83;;;19.70;99.90;;;;;;5056126;28;20563;-71
2023/07/29 06:10:20;;;;;;;1.17;0.67;;;19.50;99.90;;;;;;5055540;28;20183;-71
2023/07/29 06:12:46;;;;;;;1.80;0.97;;;19.40;99.90;;;;;;5054059;28;20153;-69
2023/07/29 06:15:12;;;;;;;1.43;1.23;;;19.30;99.90;;;;;;5054989;28;20487;-70
2023/07/29 06:17:38;;;;;;;0.67;0.67;;;19.40;99.90;;;;;;5053617;28;20527;-70
2023/07/29 06:20:04;;;;;;;1.80;1.13;;;19.50;99.90;;;;;;5053630;28;20258;-71
2023/07/29 06:22:30;;;;;;;1.27;1.03;;;19.60;99.90;;;;;;5053885;28;20437;-73
2023/07/29 06:24:55;;;;;;;0.83;0.70;;;19.60;99.90;;;;;;5053956;28;21052;-72
2023/07/29 06:27:21;;;;;;;0.90;0.90;;;19.60;99.90;;;;;;5054500;28;20626;-73
2023/07/29 06:29:46;;;;;;;1.00;1.00;;;19.80;99.90;;;;;;5054901;28;20186;-70
2023/07/29 06:32:12;;;;;;;0.60;0.60;;;19.90;99.90;;;;;;5055382;28;20163;-73
2023/07/29 06:34:38;;;;;;;0.97;0.97;;;20.10;99.90;;;;;;5054657;28;20212;-72
2023/07/29 06:37:03;;;;;;;0.60;0.60;;;20.80;99.90;;;;;;5049773;28;20185;-69
2023/07/29 06:39:29;;;;;;;1.30;1.20;;;20.80;99.90;;;;;;5053752;28;20268;-70
2023/07/29 06:41:55;;;;;;;0.70;0.70;;;21.70;99.90;;;;;;5052481;28;20609;-70
2023/07/29 06:44:20;;;;;;;0.70;0.70;;;22.80;99.90;;;;;;5053914;28;20166;-70
2023/07/29 06:46:46;;;;;;;0.60;0.60;;;23.50;99.90;;;;;;5054058;28;20166;-73
2023/07/29 06:49:12;;;;;;;0.73;0.73;;;23.80;99.90;;;;;;5054213;28;20308;-73
2023/07/29 06:51:37;;;;;;;0.80;0.60;;;23.70;99.90;;;;;;5054381;28;20434;-73
2023/07/29 06:54:03;;;;;;;1.70;0.80;;;23.50;99.90;;;;;;5054887;28;20189;-71
2023/07/29 06:56:29;;;;;;;0.70;0.70;;;23.50;99.50;;;;;;5054936;28;20530;-72
2023/07/29 06:58:54;;;;;;;0.70;0.60;;;23.20;99.50;;;;;;5054965;28;20201;-71
2023/07/29 07:01:20;;;;;;;0.90;0.57;;;22.90;99.90;;;;;;5055159;28;20511;-70
2023/07/29 07:03:46;;;;;;;0.80;0.40;;;22.80;99.90;;;;;;5054834;28;20166;-69
2023/07/29 07:06:11;;;;;;;0.50;0.50;;;22.90;99.90;;;;;;5054836;28;20209;-71
2023/07/29 07:08:37;;;;;;;0.60;0.50;;;22.50;99.90;;;;;;5054967;28;20622;-71
2023/07/29 07:11:02;;;;;;;2.50;0.70;;;22.70;99.90;;;;;;5054666;28;20634;-73
2023/07/29 07:13:28;;;;;;;0.60;0.60;;;22.60;99.90;;;;;;5054802;28;20171;-72
2023/07/29 07:15:55;;;;;;;1.00;0.40;;;22.60;99.90;;;;;;5054820;28;20174;-73
2023/07/29 07:18:23;;;;;;;0.97;0.50;;;22.60;99.90;;;;;;5054814;28;20182;-70
2023/07/29 07:20:50;;;;;;;0.90;0.70;;;22.70;99.90;;;;;;5054568;28;20414;-72
2023/07/29 07:23:16;;;;;;;1.17;1.17;;;22.70;99.90;;;;;;5054525;28;20412;-70
2023/07/29 07:25:44;;;;;;;0.77;0.77;;;22.90;99.90;;;;;;5054955;28;20456;-71
2023/07/29 07:28:10;;;;;;;0.80;0.60;;;22.90;99.90;;;;;;5054430;28;20491;-71
2023/07/29 07:30:41;;;;;;;0.87;0.87;;;22.70;99.40;;;;;;5054615;28;20482;-73
2023/07/29 07:33:07;;;;;;;1.33;0.53;;;22.50;99.90;;;;;;5054589;28;20435;-73
2023/07/29 07:35:32;;;;;;;0.60;0.60;;;22.40;99.90;;;;;;5054621;28;20408;-70
2023/07/29 07:38:01;;;;;;;1.10;0.90;;;;;;;;;;5054621;28;20319;-72
2023/07/29 07:40:27;;;;;;;0.97;0.97;;;22.50;99.70;;;;;;5054192;28;20186;-72
2023/07/29 07:42:52;;;;;;;0.70;0.60;;;22.50;99.90;;;;;;5054041;28;20993;-72
2023/07/29 07:45:18;;;;;;;1.43;1.17;;;22.50;99.70;;;;;;5052198;28;20252;-71
2023/07/29 07:47:44;;;;;;;1.43;0.80;;;22.40;99.70;;;;;;5054302;28;20252;-71
2023/07/29 07:50:09;;;;;;;0.87;0.83;;;22.30;99.90;;;;;;5053343;28;20284;-70
2023/07/29 07:52:35;;;;;;;0.60;0.60;;;22.10;99.90;;;;;;5052064;28;20177;-71
2023/07/29 07:55:02;;;;;;;0.80;0.60;;;21.90;99.90;;;;;;5054164;28;20692;-73
2023/07/29 07:57:27;;;;;;;0.40;0.40;;;21.70;99.90;;;;;;5052552;28;20573;-72
2023/07/29 07:59:54;;;;;;;1.57;1.50;;;21.60;99.90;;;;;;5053577;28;20545;-72
2023/07/29 08:02:20;;;;;;;1.17;1.10;;;21.70;99.90;;;;;;5052309;28;20892;-73
2023/07/29 08:04:46;;;;;;;0.97;0.70;;;21.80;99.90;;;;;;5054044;28;20247;-73
2023/07/29 08:07:11;;;;;;;0.70;0.40;;;21.90;99.90;;;;;;5054013;28;20260;-71
2023/07/29 08:09:37;;;;;;;1.17;0.77;;;21.90;99.90;;;;;;5053942;28;20193;-72
2023/07/29 08:12:03;;;;;;;0.50;0.50;;;22.10;99.90;;;;;;5051627;28;20175;-73
2023/07/29 08:14:29;;;;;;;1.33;0.83;;;22.40;99.90;;;;;;5053282;28;20409;-70
2023/07/29 08:16:54;;;;;;;0.70;0.60;;;22.50;99.90;;;;;;5053826;28;20224;-73
2023/07/29 08:19:20;;;;;;;0.57;0.57;;;22.90;99.90;;;;;;5053739;28;20243;-73
2023/07/29 08:21:45;;;;;;;1.97;1.23;;;23.50;99.10;;;;;;5053054;28;20201;-71
2023/07/29 08:24:11;;;;;;;0.83;0.83;;;24.00;98.40;;;;;;5053834;28;20184;-71
2023/07/29 08:26:37;;;;;;;0.77;0.70;;;24.20;98.00;;;;;;5053404;28;20206;-73
2023/07/29 08:29:02;;;;;;;1.20;0.60;;;24.50;97.20;;;;;;5053487;28;20190;-71
2023/07/29 08:31:28;;;;;;;1.63;0.80;;;24.40;96.00;;;;;;5053355;28;20634;-72
2023/07/29 08:33:53;;;;;;;0.97;0.60;;;24.30;96.50;;;;;;5052026;28;20536;-71
2023/07/29 08:36:19;;;;;;;0.50;0.50;;;24.60;96.80;;;;;;5052758;28;20252;-70
2023/07/29 08:38:45;;;;;;;1.07;0.70;;;25.30;96.40;;;;;;5053282;28;20186;-70
2023/07/29 08:41:53;;;;;;;0.50;0.50;;;26.30;94.70;;;;;;5053287;28;20219;-71
2023/07/29 08:44:23;;;;;;;0.90;0.60;;;27.60;93.70;;;;;;5051092;28;20188;-73
2023/07/29 08:46:50;;;;;;;0.80;0.70;;;28.70;90.50;;;;;;5051150;28;20883;-73
2023/07/29 08:49:18;;;;;;;0.40;0.40;;;29.20;88.30;;;;;;5051961;28;20453;-72
2023/07/29 08:51:48;;;;;;;0.60;0.60;;;29.60;86.70;;;;;;5053066;28;20407;-72
2023/07/29 08:54:14;;;;;;;0.83;0.83;;;30.20;82.80;;;;;;5053553;28;20425;-73
2023/07/29 08:56:44;;;;;;;0.50;0.50;;;30.50;82.50;;;;;;5053525;28;20405;-70
2023/07/29 08:59:11;;;;;;;0.93;0.80;;;30.90;79.50;;;;;;5053233;28;20509;-70
2023/07/29 09:01:38;;;;;;;0.60;0.60;;;31.70;76.20;;;;;;5049959;28;20816;-72
2023/07/29 09:04:04;;;;;;;0.50;0.50;;;32.00;76.30;;;;;;5052177;28;20409;-72
2023/07/29 09:06:31;;;;;;;0.83;0.80;;;31.40;76.80;;;;;;5052467;28;20459;-73
2023/07/29 09:08:59;;;;;;;1.00;0.80;;;30.60;76.10;;;;;;5052947;28;20202;-72
2023/07/29 09:11:25;;;;;;;0.60;0.60;;;29.70;78.80;;;;;;5052804;28;20840;-73
2023/07/29 09:13:51;;;;;;;1.17;1.07;;;28.80;79.10;;;;;;5052944;28;20409;-72
2023/07/29 09:16:16;;;;;;;2.20;0.70;;;28.00;82.40;;;;;;5052824;28;20458;-71
2023/07/29 09:18:43;;;;;;;0.53;0.50;;;27.70;82.40;;;;;;5053026;28;20593;-73
2023/07/29 09:21:09;;;;;;;1.07;0.97;;;27.30;85.20;;;;;;5052895;28;20213;-71
2023/07/29 09:23:42;;;;;;;1.47;1.13;;;27.10;87.60;;;;;;5054207;28;20904;-72
2023/07/29 09:26:08;;;;;;;0.70;0.63;;;28.00;85.20;;;;;;5056828;28;20865;-71
2023/07/29 09:28:40;;;;;;;1.07;0.97;;;29.70;96.30;;;;;;5056791;28;20443;-73
2023/07/29 09:31:07;;;;;;;0.80;0.70;;;29.70;78.90;;;;;;5056736;28;20401;-73
2023/07/29 09:33:39;;;;;;;0.40;0.40;;;29.20;78.00;;;;;;5056713;28;20488;-72
2023/07/29 09:36:14;;;;;;;0.90;0.90;;;28.60;79.70;;;;;;5056872;28;20735;-71
2023/07/29 09:38:40;;;;;;;0.60;0.60;;;27.50;97.90;;;;;;5056484;28;20431;-72
2023/07/29 09:41:05;;;;;;;1.27;1.17;;;27.30;82.90;;;;;;5056195;28;20436;-72
2023/07/29 09:43:32;;;;;;;0.73;0.60;;;26.70;84.80;;;;;;5056667;28;20174;-70
2023/07/29 09:46:06;;;;;;;1.80;0.80;;;26.40;89.80;;;;;;5056459;28;20198;-73
2023/07/29 09:48:36;;;;;;;0.70;0.70;;;26.10;99.90;;;;;;5056422;28;20401;-72
2023/07/29 09:51:12;;;;;;;0.50;0.50;;;26.60;88.90;;;;;;5056067;28;20866;-72
2023/07/29 09:53:46;;;;;;;1.00;0.90;;;26.50;88.90;;;;;;5056195;28;20404;-70
2023/07/29 09:56:12;;;;;;;0.90;0.90;;;26.50;89.10;;;;;;5054094;28;20404;-71
2023/07/29 09:58:39;;;;;;;0.80;0.80;;;27.30;98.90;;;;;;5054648;28;20499;-70
2023/07/29 10:01:06;;;;;;;2.20;1.17;;;27.40;85.30;;;;;;5054193;28;20458;-71
2023/07/29 10:03:33;;;;;;;1.57;0.90;;;27.20;84.80;;;;;;5053941;28;20765;-72
2023/07/29 10:06:03;;;;;;;0.87;0.60;;;27.40;85.70;;;;;;5055903;28;20452;-72
2023/07/29 10:08:38;;;;;;;1.17;1.00;;;28.20;98.90;;;;;;5056852;28;20409;-69
2023/07/29 10:11:08;;;;;;;0.97;0.73;;;28.00;84.80;;;;;;5055820;28;20412;-71
2023/07/29 10:13:34;;;;;;;1.10;0.80;;;27.90;84.10;;;;;;5055906;28;20431;-71
2023/07/29 10:16:02;;;;;;;1.10;0.90;;;27.90;85.50;;;;;;5054306;28;20405;-72
2023/07/29 10:18:28;;;;;;;0.80;0.63;;;29.20;95.00;;;;;;5056027;28;20577;-72
2023/07/29 10:20:56;;;;;;;1.07;0.90;;;29.00;84.10;;;;;;5055637;28;20413;-71
2023/07/29 10:23:24;;;;;;;1.03;0.90;;;29.10;77.90;;;;;;5055790;28;20408;-71
2023/07/29 10:26:05;;;;;;;1.10;0.90;;;28.80;79.60;;;;;;5055625;28;20455;-70
2023/07/29 10:28:32;;;;;;;0.97;0.97;;;28.50;92.90;;;;;;5055674;28;20404;-72
2023/07/29 10:30:59;;;;;;;1.90;1.37;;;28.40;79.50;;;;;;5055711;28;20493;-71
2023/07/29 10:33:25;;;;;;;2.07;0.83;;;28.20;82.20;;;;;;5055507;28;20499;-72
2023/07/29 10:35:52;;;;;;;1.00;0.90;;;28.10;83.00;;;;;;5055202;28;20463;-72
2023/07/29 10:38:21;;;;;;;1.20;0.90;;;27.90;83.60;;;;;;5055463;28;20408;-72
2023/07/29 10:41:10;;;;;;;0.80;0.77;;;28.00;85.80;;;;;;5055201;28;20428;-71
2023/07/29 10:43:40;;;;;;;1.40;0.93;;;28.00;84.00;;;;;;5055524;28;20496;-70
2023/07/29 10:46:19;;;;;;;1.30;0.57;;;28.30;81.70;;;;;;5055359;28;20448;-72
2023/07/29 10:48:56;;;;;;;1.50;1.10;;;28.60;79.10;;;;;;5055326;28;20420;-71
2023/07/29 10:51:29;;;;;;;0.63;0.63;;;28.80;77.00;;;;;;5055159;28;20389;-72
2023/07/29 10:53:56;;;;;;;1.63;1.10;;;28.80;78.70;;;;;;5055324;28;20405;-72
2023/07/29 10:56:33;;;;;;;0.77;0.77;;;29.10;80.10;;;;;;5055185;28;20393;-70
2023/07/29 10:59:34;;;;;;;2.70;1.00;;;29.60;81.20;;;;;;5055186;28;20420;-72
2023/07/29 11:02:00;;;;;;;0.87;0.87;;;30.10;76.00;;;;;;5054921;28;20466;-70
2023/07/29 11:04:33;;;;;;;1.07;0.93;;;29.10;73.80;;;;;;5054933;28;20459;-70
2023/07/29 11:07:27;;;;;;;0.50;0.50;;;28.10;75.50;;;;;;5055324;28;20889;-71
2023/07/29 11:10:04;;;;;;;2.57;1.00;;;27.80;79.30;;;;;;5054568;28;20428;-69
2023/07/29 11:12:51;;;;;;;1.77;0.93;;;27.40;77.70;;;;;;5054674;28;20464;-71
2023/07/29 11:15:27;;;;;;;1.23;0.80;;;26.60;80.60;;;;;;5054858;28;20404;-72
2023/07/29 11:18:01;;;;;;;1.30;1.10;;;26.70;83.90;;;;;;5054813;28;20419;-72
2023/07/29 11:20:32;;;;;;;0.83;0.80;;;27.00;80.90;;;;;;5054576;28;20440;-70
2023/07/29 11:22:59;;;;;;;1.20;1.20;;;27.00;80.20;;;;;;5054592;28;20889;-71
2023/07/29 11:25:27;;;;;;;1.37;1.10;;;27.10;79.50;;;;;;5054508;28;20802;-71
2023/07/29 11:27:55;;;;;;;0.70;0.70;;;27.10;77.00;;;;;;5054501;28;20401;-71
2023/07/29 11:30:20;;;;;;;0.63;0.63;;;27.00;78.80;;;;;;5054400;28;20436;-70
2023/07/29 11:32:47;;;;;;;0.80;0.80;;;26.90;81.40;;;;;;5054383;28;20404;-71
2023/07/29 11:35:15;;;;;;;2.83;0.57;;;27.20;76.90;;;;;;5054608;28;20198;-70
2023/07/29 11:37:43;;;;;;;0.83;0.80;;;27.30;79.90;;;;;;5054300;28;20494;-71
2023/07/29 11:40:12;;;;;;;1.13;0.97;;;27.50;79.70;;;;;;5054264;28;20432;-69
2023/07/29 11:42:38;;;;;;;2.03;1.03;;;27.40;75.20;;;;;;5054300;28;20400;-71
2023/07/29 11:45:08;;;;;;;1.20;0.90;;;27.20;78.30;;;;;;5054136;28;20527;-72
2023/07/29 11:47:37;;;;;;;1.43;1.20;;;27.30;76.10;;;;;;5053747;28;20465;-70
2023/07/29 11:50:09;;;;;;;0.83;0.83;;;27.20;78.20;;;;;;5054073;28;20562;-72
2023/07/29 11:52:35;;;;;;;0.70;0.70;;;27.20;81.10;;;;;;5053806;28;20401;-71
2023/07/29 11:55:03;;;;;;;0.93;0.80;;;27.20;79.10;;;;;;5054020;28;20404;-71
2023/07/29 11:57:29;;;;;;;2.10;0.93;;;27.30;80.30;;;;;;5054114;28;20404;-70
2023/07/29 11:59:55;;;;;;;0.60;0.60;;;27.20;79.00;;;;;;5053868;28;20424;-70
2023/07/29 12:02:22;;;;;;;0.73;0.70;;;27.20;78.00;;;;;;5053753;28;20416;-71
2023/07/29 12:04:48;;;;;;;1.10;1.10;;;27.10;77.60;;;;;;5053815;28;20220;-70
2023/07/29 12:07:16;;;;;;;1.00;0.80;;;26.90;78.80;;;;;;5053839;28;20401;-70
2023/07/29 12:09:42;;;;;;;1.57;1.10;;;26.40;77.10;;;;;;5053705;28;20423;-70
2023/07/29 12:12:08;;;;;;;0.80;0.80;;;26.40;78.30;;;;;;5053683;28;20403;-72
2023/07/29 12:14:35;;;;;;;1.43;1.33;;;26.20;80.00;;;;;;5053713;28;20422;-71
2023/07/29 12:17:05;;;;;;;0.50;0.50;;;25.90;85.60;;;;;;5053861;28;20405;-69
2023/07/29 12:19:38;;;;;;;0.90;0.90;;;26.00;83.70;;;;;;5053781;28;20407;-71
2023/07/29 12:22:06;;;;;;;1.27;0.80;;;26.10;82.00;;;;;;5053482;28;20421;-71
2023/07/29 12:24:33;;;;;;;1.07;0.83;;;26.00;83.20;;;;;;5053659;28;20488;-71
2023/07/29 12:26:59;;;;;;;0.90;0.80;;;25.90;78.80;;;;;;5053528;28;20448;-71
2023/07/29 12:29:25;;;;;;;2.00;1.00;;;25.80;79.00;;;;;;5053319;28;20423;-71
2023/07/29 12:32:00;;;;;;;0.80;0.80;;;26.00;80.80;;;;;;5053381;28;20405;-71
2023/07/29 12:34:28;;;;;;;0.80;0.70;;;26.10;83.80;;;;;;5053572;28;20396;-70
2023/07/29 12:36:55;;;;;;;0.97;0.90;;;26.10;80.30;;;;;;5053121;28;20396;-71
2023/07/29 12:39:32;;;;;;;0.83;0.80;;;26.00;80.60;;;;;;5053249;28;20428;-71
2023/07/29 12:42:00;;;;;;;3.10;1.27;;;26.00;83.00;;;;;;5053076;28;20389;-71
2023/07/29 12:44:33;;;;;;;1.20;1.10;;;26.10;83.60;;;;;;5053341;28;20383;-71
2023/07/29 12:47:03;;;;;;;1.03;0.57;;;26.20;82.60;;;;;;5053493;28;20499;-71
2023/07/29 12:49:30;;;;;;;2.30;1.17;;;26.00;79.30;;;;;;5053103;28;20476;-70